sensor_id;sensor_type;location;lat;lon;timestamp;temperature;humidity
44729;DHT22;30457;53.590;9.922;2022-09-13T00:00:03;22.60;46.80
44729;DHT22;30457;53.590;9.922;2022-09-13T00:04:30;22.60;47.10
44729;DHT22;30457;53.590;9.922;2022-09-13T00:08:55;22.50;47.20
44729;DHT22;30457;53.590;9.922;2022-09-13T00:13:22;22.50;47.00
44729;DHT22;30457;53.590;9.922;2022-09-13T00:17:47;22.50;47.00
44729;DHT22;30457;53.590;9.922;2022-09-13T00:22:13;22.50;47.00
44729;DHT22;30457;53.590;9.922;2022-09-13T00:26:39;22.50;46.70
44729;DHT22;30457;53.590;9.922;2022-09-13T00:31:06;22.50;47.00
44729;DHT22;30457;53.590;9.922;2022-09-13T00:35:33;22.50;47.20
44729;DHT22;30457;53.590;9.922;2022-09-13T00:40:00;22.50;47.40
44729;DHT22;30457;53.590;9.922;2022-09-13T00:49:23;22.40;48.30
44729;DHT22;30457;53.590;9.922;2022-09-13T00:53:53;22.30;48.10
44729;DHT22;30457;53.590;9.922;2022-09-13T00:58:27;22.30;47.90
44729;DHT22;30457;53.590;9.922;2022-09-13T01:03:00;22.20;48.10
44729;DHT22;30457;53.590;9.922;2022-09-13T01:07:26;22.10;48.40
44729;DHT22;30457;53.590;9.922;2022-09-13T01:12:00;22.00;48.10
44729;DHT22;30457;53.590;9.922;2022-09-13T01:16:28;21.90;48.70
44729;DHT22;30457;53.590;9.922;2022-09-13T01:21:19;21.80;48.60
44729;DHT22;30457;53.590;9.922;2022-09-13T01:26:10;21.70;49.50
44729;DHT22;30457;53.590;9.922;2022-09-13T01:30:56;21.60;49.40
44729;DHT22;30457;53.590;9.922;2022-09-13T01:40:36;21.50;50.00
44729;DHT22;30457;53.590;9.922;2022-09-13T01:49:57;21.30;49.90
44729;DHT22;30457;53.590;9.922;2022-09-13T01:59:28;21.20;50.70
44729;DHT22;30457;53.590;9.922;2022-09-13T02:04:11;21.20;50.80
44729;DHT22;30457;53.590;9.922;2022-09-13T02:08:51;21.20;50.80
44729;DHT22;30457;53.590;9.922;2022-09-13T02:13:23;21.20;51.00
44729;DHT22;30457;53.590;9.922;2022-09-13T02:17:57;21.10;50.80
44729;DHT22;30457;53.590;9.922;2022-09-13T02:22:30;21.10;51.00
44729;DHT22;30457;53.590;9.922;2022-09-13T02:27:02;21.10;51.10
44729;DHT22;30457;53.590;9.922;2022-09-13T02:31:35;21.00;51.00
44729;DHT22;30457;53.590;9.922;2022-09-13T02:36:07;21.10;51.40
44729;DHT22;30457;53.590;9.922;2022-09-13T02:40:38;21.00;51.10
44729;DHT22;30457;53.590;9.922;2022-09-13T02:45:07;21.00;51.40
44729;DHT22;30457;53.590;9.922;2022-09-13T02:49:48;21.00;51.40
44729;DHT22;30457;53.590;9.922;2022-09-13T02:54:24;21.00;51.70
44729;DHT22;30457;53.590;9.922;2022-09-13T03:03:28;20.90;51.80
44729;DHT22;30457;53.590;9.922;2022-09-13T03:07:54;20.90;51.70
44729;DHT22;30457;53.590;9.922;2022-09-13T03:17:28;20.80;52.40
44729;DHT22;30457;53.590;9.922;2022-09-13T03:22:21;20.80;52.50
44729;DHT22;30457;53.590;9.922;2022-09-13T03:31:36;20.80;53.00
44729;DHT22;30457;53.590;9.922;2022-09-13T03:36:13;20.70;52.90
44729;DHT22;30457;53.590;9.922;2022-09-13T03:40:47;20.70;52.90
44729;DHT22;30457;53.590;9.922;2022-09-13T03:45:20;20.70;53.00
44729;DHT22;30457;53.590;9.922;2022-09-13T03:49:47;20.70;53.70
44729;DHT22;30457;53.590;9.922;2022-09-13T03:54:23;20.70;53.00
44729;DHT22;30457;53.590;9.922;2022-09-13T03:58:50;20.70;53.30
44729;DHT22;30457;53.590;9.922;2022-09-13T04:03:15;20.60;53.20
44729;DHT22;30457;53.590;9.922;2022-09-13T04:07:41;20.60;53.20
44729;DHT22;30457;53.590;9.922;2022-09-13T04:12:07;20.60;53.40
44729;DHT22;30457;53.590;9.922;2022-09-13T04:16:36;20.60;53.60
44729;DHT22;30457;53.590;9.922;2022-09-13T04:21:01;20.60;53.70
44729;DHT22;30457;53.590;9.922;2022-09-13T04:25:27;20.60;53.70
44729;DHT22;30457;53.590;9.922;2022-09-13T04:29:52;20.60;54.10
44729;DHT22;30457;53.590;9.922;2022-09-13T04:34:18;20.60;54.40
44729;DHT22;30457;53.590;9.922;2022-09-13T04:38:45;20.50;54.70
44729;DHT22;30457;53.590;9.922;2022-09-13T04:43:11;20.50;54.80
44729;DHT22;30457;53.590;9.922;2022-09-13T04:47:37;20.50;55.00
44729;DHT22;30457;53.590;9.922;2022-09-13T04:52:02;20.40;55.00
44729;DHT22;30457;53.590;9.922;2022-09-13T04:56:28;20.40;55.10
44729;DHT22;30457;53.590;9.922;2022-09-13T05:00:59;20.40;55.40
44729;DHT22;30457;53.590;9.922;2022-09-13T05:05:25;20.40;55.50
44729;DHT22;30457;53.590;9.922;2022-09-13T05:09:51;20.30;55.70
44729;DHT22;30457;53.590;9.922;2022-09-13T05:14:16;20.30;55.80
44729;DHT22;30457;53.590;9.922;2022-09-13T05:18:42;20.30;56.20
44729;DHT22;30457;53.590;9.922;2022-09-13T05:23:08;20.20;56.60
44729;DHT22;30457;53.590;9.922;2022-09-13T05:27:33;20.20;56.50
44729;DHT22;30457;53.590;9.922;2022-09-13T05:31:59;20.20;56.80
44729;DHT22;30457;53.590;9.922;2022-09-13T05:36:24;20.20;56.90
44729;DHT22;30457;53.590;9.922;2022-09-13T05:40:55;20.20;57.00
44729;DHT22;30457;53.590;9.922;2022-09-13T05:45:21;20.20;57.50
44729;DHT22;30457;53.590;9.922;2022-09-13T05:49:46;20.30;57.30
44729;DHT22;30457;53.590;9.922;2022-09-13T05:54:12;20.30;57.30
44729;DHT22;30457;53.590;9.922;2022-09-13T05:58:39;20.30;57.50
44729;DHT22;30457;53.590;9.922;2022-09-13T06:03:06;20.30;57.40
44729;DHT22;30457;53.590;9.922;2022-09-13T06:07:32;20.40;57.60
44729;DHT22;30457;53.590;9.922;2022-09-13T06:11:58;20.40;57.70
44729;DHT22;30457;53.590;9.922;2022-09-13T06:16:23;20.40;57.60
44729;DHT22;30457;53.590;9.922;2022-09-13T06:20:49;20.50;57.60
44729;DHT22;30457;53.590;9.922;2022-09-13T06:25:15;20.50;57.70
44729;DHT22;30457;53.590;9.922;2022-09-13T06:29:41;20.50;57.90
44729;DHT22;30457;53.590;9.922;2022-09-13T06:34:09;20.60;58.10
44729;DHT22;30457;53.590;9.922;2022-09-13T06:38:35;20.70;58.10
44729;DHT22;30457;53.590;9.922;2022-09-13T06:43:02;20.80;58.30
44729;DHT22;30457;53.590;9.922;2022-09-13T06:47:28;20.90;58.60
44729;DHT22;30457;53.590;9.922;2022-09-13T06:51:53;21.00;58.40
44729;DHT22;30457;53.590;9.922;2022-09-13T06:56:24;21.10;58.00
44729;DHT22;30457;53.590;9.922;2022-09-13T07:00:49;21.30;58.00
44729;DHT22;30457;53.590;9.922;2022-09-13T07:05:15;21.30;57.60
44729;DHT22;30457;53.590;9.922;2022-09-13T07:09:42;21.40;57.80
44729;DHT22;30457;53.590;9.922;2022-09-13T07:14:10;21.50;57.70
44729;DHT22;30457;53.590;9.922;2022-09-13T07:18:37;21.50;57.60
44729;DHT22;30457;53.590;9.922;2022-09-13T07:23:02;21.60;57.70
44729;DHT22;30457;53.590;9.922;2022-09-13T07:27:28;21.60;57.80
44729;DHT22;30457;53.590;9.922;2022-09-13T07:31:54;21.70;57.70
44729;DHT22;30457;53.590;9.922;2022-09-13T07:36:21;21.70;57.60
44729;DHT22;30457;53.590;9.922;2022-09-13T07:40:56;21.80;57.50
44729;DHT22;30457;53.590;9.922;2022-09-13T07:45:23;21.80;58.40
44729;DHT22;30457;53.590;9.922;2022-09-13T07:49:49;22.00;58.40
44729;DHT22;30457;53.590;9.922;2022-09-13T07:54:16;22.10;57.50
44729;DHT22;30457;53.590;9.922;2022-09-13T07:58:43;22.20;57.60
44729;DHT22;30457;53.590;9.922;2022-09-13T08:03:10;22.30;57.00
44729;DHT22;30457;53.590;9.922;2022-09-13T08:07:36;22.30;56.90
44729;DHT22;30457;53.590;9.922;2022-09-13T08:12:01;22.40;57.10
44729;DHT22;30457;53.590;9.922;2022-09-13T08:16:28;22.50;56.90
44729;DHT22;30457;53.590;9.922;2022-09-13T08:20:58;22.50;56.50
44729;DHT22;30457;53.590;9.922;2022-09-13T08:25:24;22.60;56.40
44729;DHT22;30457;53.590;9.922;2022-09-13T08:29:50;22.60;56.30
44729;DHT22;30457;53.590;9.922;2022-09-13T08:34:16;22.70;56.50
44729;DHT22;30457;53.590;9.922;2022-09-13T08:38:50;22.70;55.50
44729;DHT22;30457;53.590;9.922;2022-09-13T08:43:35;22.70;55.60
44729;DHT22;30457;53.590;9.922;2022-09-13T08:48:15;22.80;55.20
44729;DHT22;30457;53.590;9.922;2022-09-13T08:58:04;22.90;54.00
44729;DHT22;30457;53.590;9.922;2022-09-13T09:03:10;22.90;54.10
44729;DHT22;30457;53.590;9.922;2022-09-13T09:07:41;23.10;53.80
44729;DHT22;30457;53.590;9.922;2022-09-13T09:12:27;23.20;54.30
44729;DHT22;30457;53.590;9.922;2022-09-13T09:17:02;23.30;51.60
44729;DHT22;30457;53.590;9.922;2022-09-13T09:21:31;23.40;51.70
44729;DHT22;30457;53.590;9.922;2022-09-13T09:26:33;23.50;52.00
44729;DHT22;30457;53.590;9.922;2022-09-13T09:31:08;23.60;51.30
44729;DHT22;30457;53.590;9.922;2022-09-13T09:35:51;23.70;51.30
44729;DHT22;30457;53.590;9.922;2022-09-13T09:40:20;23.90;51.20
44729;DHT22;30457;53.590;9.922;2022-09-13T09:44:49;24.10;50.30
44729;DHT22;30457;53.590;9.922;2022-09-13T09:49:20;24.30;49.10
44729;DHT22;30457;53.590;9.922;2022-09-13T09:54:05;24.40;48.20
44729;DHT22;30457;53.590;9.922;2022-09-13T09:58:39;24.50;47.80
44729;DHT22;30457;53.590;9.922;2022-09-13T10:03:14;24.50;47.20
44729;DHT22;30457;53.590;9.922;2022-09-13T10:07:41;24.40;47.00
44729;DHT22;30457;53.590;9.922;2022-09-13T10:12:06;24.30;46.80
44729;DHT22;30457;53.590;9.922;2022-09-13T10:16:32;24.30;47.00
44729;DHT22;30457;53.590;9.922;2022-09-13T10:21:21;24.40;46.50
44729;DHT22;30457;53.590;9.922;2022-09-13T10:26:12;24.50;45.70
44729;DHT22;30457;53.590;9.922;2022-09-13T10:30:48;24.60;45.00
44729;DHT22;30457;53.590;9.922;2022-09-13T10:35:17;24.70;45.30
44729;DHT22;30457;53.590;9.922;2022-09-13T10:44:37;24.80;44.80
44729;DHT22;30457;53.590;9.922;2022-09-13T10:49:04;24.80;44.30
44729;DHT22;30457;53.590;9.922;2022-09-13T11:02:54;24.80;43.80
44729;DHT22;30457;53.590;9.922;2022-09-13T11:07:29;24.90;43.40
44729;DHT22;30457;53.590;9.922;2022-09-13T11:22:17;25.00;42.80
44729;DHT22;30457;53.590;9.922;2022-09-13T11:27:01;25.00;42.90
44729;DHT22;30457;53.590;9.922;2022-09-13T11:36:28;25.00;42.40
44729;DHT22;30457;53.590;9.922;2022-09-13T11:41:12;24.90;43.20
44729;DHT22;30457;53.590;9.922;2022-09-13T11:45:47;24.90;42.70
44729;DHT22;30457;53.590;9.922;2022-09-13T11:55:20;25.10;41.60
44729;DHT22;30457;53.590;9.922;2022-09-13T12:00:18;25.10;41.60
44729;DHT22;30457;53.590;9.922;2022-09-13T12:09:18;25.20;41.50
44729;DHT22;30457;53.590;9.922;2022-09-13T12:13:53;25.30;42.50
44729;DHT22;30457;53.590;9.922;2022-09-13T12:18:25;25.40;41.90
44729;DHT22;30457;53.590;9.922;2022-09-13T12:22:52;25.40;41.90
44729;DHT22;30457;53.590;9.922;2022-09-13T12:27:44;25.40;41.70
44729;DHT22;30457;53.590;9.922;2022-09-13T12:32:12;25.40;41.00
44729;DHT22;30457;53.590;9.922;2022-09-13T12:36:57;25.30;41.70
44729;DHT22;30457;53.590;9.922;2022-09-13T12:51:13;25.40;42.10
44729;DHT22;30457;53.590;9.922;2022-09-13T12:56:00;25.50;41.90
44729;DHT22;30457;53.590;9.922;2022-09-13T13:00:29;25.50;41.80
44729;DHT22;30457;53.590;9.922;2022-09-13T13:05:02;25.60;42.00
44729;DHT22;30457;53.590;9.922;2022-09-13T13:10:02;25.60;41.90
44729;DHT22;30457;53.590;9.922;2022-09-13T13:19:04;25.90;41.40
44729;DHT22;30457;53.590;9.922;2022-09-13T13:23:34;26.10;41.00
44729;DHT22;30457;53.590;9.922;2022-09-13T13:28:00;26.00;40.60
44729;DHT22;30457;53.590;9.922;2022-09-13T13:32:26;26.00;41.10
44729;DHT22;30457;53.590;9.922;2022-09-13T13:37:25;25.90;40.60
44729;DHT22;30457;53.590;9.922;2022-09-13T13:55:48;25.60;42.50
44729;DHT22;30457;53.590;9.922;2022-09-13T14:00:20;25.70;42.40
44729;DHT22;30457;53.590;9.922;2022-09-13T14:05:02;25.80;41.60
44729;DHT22;30457;53.590;9.922;2022-09-13T14:09:47;25.80;41.30
44729;DHT22;30457;53.590;9.922;2022-09-13T14:23:38;25.80;42.30
44729;DHT22;30457;53.590;9.922;2022-09-13T14:28:05;25.90;42.20
44729;DHT22;30457;53.590;9.922;2022-09-13T14:32:43;26.00;41.80
44729;DHT22;30457;53.590;9.922;2022-09-13T14:37:17;25.90;41.00
44729;DHT22;30457;53.590;9.922;2022-09-13T14:41:43;25.90;41.40
44729;DHT22;30457;53.590;9.922;2022-09-13T14:46:26;26.00;42.00
44729;DHT22;30457;53.590;9.922;2022-09-13T14:55:29;25.90;40.90
44729;DHT22;30457;53.590;9.922;2022-09-13T14:59:57;25.90;40.90
44729;DHT22;30457;53.590;9.922;2022-09-13T15:04:24;25.80;42.00
44729;DHT22;30457;53.590;9.922;2022-09-13T15:08:50;25.80;41.70
44729;DHT22;30457;53.590;9.922;2022-09-13T15:13:16;25.80;40.80
44729;DHT22;30457;53.590;9.922;2022-09-13T15:17:53;25.80;40.50
44729;DHT22;30457;53.590;9.922;2022-09-13T15:22:29;25.70;39.50
44729;DHT22;30457;53.590;9.922;2022-09-13T15:27:05;25.60;39.80
44729;DHT22;30457;53.590;9.922;2022-09-13T15:31:33;25.50;40.40
44729;DHT22;30457;53.590;9.922;2022-09-13T15:40:45;25.40;40.30
44729;DHT22;30457;53.590;9.922;2022-09-13T15:45:11;25.30;40.50
44729;DHT22;30457;53.590;9.922;2022-09-13T15:49:38;25.20;40.40
44729;DHT22;30457;53.590;9.922;2022-09-13T15:54:14;25.10;40.30
44729;DHT22;30457;53.590;9.922;2022-09-13T15:58:39;24.90;40.40
44729;DHT22;30457;53.590;9.922;2022-09-13T16:03:05;24.80;40.80
44729;DHT22;30457;53.590;9.922;2022-09-13T16:07:32;24.70;40.50
44729;DHT22;30457;53.590;9.922;2022-09-13T16:11:58;24.60;40.30
44729;DHT22;30457;53.590;9.922;2022-09-13T16:16:24;24.50;40.20
44729;DHT22;30457;53.590;9.922;2022-09-13T16:20:50;24.40;40.20
44729;DHT22;30457;53.590;9.922;2022-09-13T16:25:15;24.30;39.80
44729;DHT22;30457;53.590;9.922;2022-09-13T16:29:42;24.20;40.10
44729;DHT22;30457;53.590;9.922;2022-09-13T16:34:07;24.10;40.00
44729;DHT22;30457;53.590;9.922;2022-09-13T16:38:33;24.10;40.10
44729;DHT22;30457;53.590;9.922;2022-09-13T16:42:59;24.00;39.90
44729;DHT22;30457;53.590;9.922;2022-09-13T16:47:24;23.90;40.30
44729;DHT22;30457;53.590;9.922;2022-09-13T16:51:50;23.80;40.40
44729;DHT22;30457;53.590;9.922;2022-09-13T16:56:18;23.70;41.50
44729;DHT22;30457;53.590;9.922;2022-09-13T17:00:45;23.60;40.70
44729;DHT22;30457;53.590;9.922;2022-09-13T17:05:11;23.60;41.10
44729;DHT22;30457;53.590;9.922;2022-09-13T17:09:37;23.50;41.10
44729;DHT22;30457;53.590;9.922;2022-09-13T17:14:07;23.40;41.40
44729;DHT22;30457;53.590;9.922;2022-09-13T17:18:33;23.30;41.60
44729;DHT22;30457;53.590;9.922;2022-09-13T17:22:58;23.30;41.70
44729;DHT22;30457;53.590;9.922;2022-09-13T17:27:25;23.20;42.10
44729;DHT22;30457;53.590;9.922;2022-09-13T17:31:51;23.10;42.20
44729;DHT22;30457;53.590;9.922;2022-09-13T17:36:17;23.00;42.40
44729;DHT22;30457;53.590;9.922;2022-09-13T17:40:43;23.00;42.60
44729;DHT22;30457;53.590;9.922;2022-09-13T17:45:09;22.90;42.60
44729;DHT22;30457;53.590;9.922;2022-09-13T17:49:35;22.80;42.80
44729;DHT22;30457;53.590;9.922;2022-09-13T17:54:04;22.70;43.00
44729;DHT22;30457;53.590;9.922;2022-09-13T17:58:30;22.60;43.20
44729;DHT22;30457;53.590;9.922;2022-09-13T18:02:56;22.60;43.30
44729;DHT22;30457;53.590;9.922;2022-09-13T18:07:21;22.50;43.40
44729;DHT22;30457;53.590;9.922;2022-09-13T18:11:47;22.50;43.50
44729;DHT22;30457;53.590;9.922;2022-09-13T18:16:18;22.40;43.60
44729;DHT22;30457;53.590;9.922;2022-09-13T18:20:44;22.30;43.80
44729;DHT22;30457;53.590;9.922;2022-09-13T18:25:11;22.30;43.90
44729;DHT22;30457;53.590;9.922;2022-09-13T18:29:36;22.30;44.00
44729;DHT22;30457;53.590;9.922;2022-09-13T18:34:08;22.20;43.90
44729;DHT22;30457;53.590;9.922;2022-09-13T18:38:46;22.20;44.10
44729;DHT22;30457;53.590;9.922;2022-09-13T18:43:12;22.20;44.10
44729;DHT22;30457;53.590;9.922;2022-09-13T18:47:38;22.10;44.20
44729;DHT22;30457;53.590;9.922;2022-09-13T18:52:03;22.10;44.30
44729;DHT22;30457;53.590;9.922;2022-09-13T18:56:29;22.00;44.20
44729;DHT22;30457;53.590;9.922;2022-09-13T19:05:26;21.90;44.30
44729;DHT22;30457;53.590;9.922;2022-09-13T19:09:52;21.90;44.40
44729;DHT22;30457;53.590;9.922;2022-09-13T19:14:22;21.90;44.60
44729;DHT22;30457;53.590;9.922;2022-09-13T19:18:48;21.80;44.70
44729;DHT22;30457;53.590;9.922;2022-09-13T19:23:17;21.80;44.70
44729;DHT22;30457;53.590;9.922;2022-09-13T19:27:43;21.80;45.00
44729;DHT22;30457;53.590;9.922;2022-09-13T19:32:09;21.80;45.00
44729;DHT22;30457;53.590;9.922;2022-09-13T19:36:36;21.70;45.00
44729;DHT22;30457;53.590;9.922;2022-09-13T19:41:05;21.70;45.10
44729;DHT22;30457;53.590;9.922;2022-09-13T19:45:31;21.70;45.30
44729;DHT22;30457;53.590;9.922;2022-09-13T19:49:57;21.70;45.80
44729;DHT22;30457;53.590;9.922;2022-09-13T19:54:23;21.60;45.20
44729;DHT22;30457;53.590;9.922;2022-09-13T19:58:49;21.60;45.20
44729;DHT22;30457;53.590;9.922;2022-09-13T20:03:15;21.60;45.30
44729;DHT22;30457;53.590;9.922;2022-09-13T20:07:42;21.60;45.30
44729;DHT22;30457;53.590;9.922;2022-09-13T20:12:09;21.60;45.50
44729;DHT22;30457;53.590;9.922;2022-09-13T20:16:38;21.50;45.60
44729;DHT22;30457;53.590;9.922;2022-09-13T20:21:06;21.50;45.60
44729;DHT22;30457;53.590;9.922;2022-09-13T20:25:32;21.50;45.80
44729;DHT22;30457;53.590;9.922;2022-09-13T20:29:58;21.50;45.80
44729;DHT22;30457;53.590;9.922;2022-09-13T20:34:24;21.40;45.80
44729;DHT22;30457;53.590;9.922;2022-09-13T20:38:51;21.40;45.90
44729;DHT22;30457;53.590;9.922;2022-09-13T20:43:17;21.30;46.00
44729;DHT22;30457;53.590;9.922;2022-09-13T20:47:43;21.30;46.20
44729;DHT22;30457;53.590;9.922;2022-09-13T20:52:10;21.20;46.30
44729;DHT22;30457;53.590;9.922;2022-09-13T20:56:37;21.20;46.50
44729;DHT22;30457;53.590;9.922;2022-09-13T21:01:10;21.20;46.60
44729;DHT22;30457;53.590;9.922;2022-09-13T21:05:37;21.10;46.70
44729;DHT22;30457;53.590;9.922;2022-09-13T21:10:03;21.10;47.00
44729;DHT22;30457;53.590;9.922;2022-09-13T21:14:29;21.10;47.70
44729;DHT22;30457;53.590;9.922;2022-09-13T21:18:56;21.00;47.20
44729;DHT22;30457;53.590;9.922;2022-09-13T21:23:22;20.90;47.40
44729;DHT22;30457;53.590;9.922;2022-09-13T21:27:47;20.90;47.50
44729;DHT22;30457;53.590;9.922;2022-09-13T21:32:13;20.90;47.60
44729;DHT22;30457;53.590;9.922;2022-09-13T21:36:39;20.80;47.80
44729;DHT22;30457;53.590;9.922;2022-09-13T21:41:08;20.80;48.00
44729;DHT22;30457;53.590;9.922;2022-09-13T21:45:34;20.70;48.10
44729;DHT22;30457;53.590;9.922;2022-09-13T21:49:59;20.70;48.20
44729;DHT22;30457;53.590;9.922;2022-09-13T21:54:25;20.70;48.20
44729;DHT22;30457;53.590;9.922;2022-09-13T21:58:52;20.60;48.20
44729;DHT22;30457;53.590;9.922;2022-09-13T22:03:18;20.60;48.40
44729;DHT22;30457;53.590;9.922;2022-09-13T22:07:44;20.60;48.50
44729;DHT22;30457;53.590;9.922;2022-09-13T22:12:09;20.50;48.50
44729;DHT22;30457;53.590;9.922;2022-09-13T22:16:37;20.50;48.60
44729;DHT22;30457;53.590;9.922;2022-09-13T22:21:04;20.50;48.60
44729;DHT22;30457;53.590;9.922;2022-09-13T22:25:31;20.40;48.80
44729;DHT22;30457;53.590;9.922;2022-09-13T22:29:56;20.40;48.80
44729;DHT22;30457;53.590;9.922;2022-09-13T22:34:23;20.40;48.80
44729;DHT22;30457;53.590;9.922;2022-09-13T22:38:50;20.40;49.00
44729;DHT22;30457;53.590;9.922;2022-09-13T22:43:16;20.30;49.10
44729;DHT22;30457;53.590;9.922;2022-09-13T22:47:41;20.30;49.20
44729;DHT22;30457;53.590;9.922;2022-09-13T22:52:07;20.30;49.40
44729;DHT22;30457;53.590;9.922;2022-09-13T22:56:33;20.20;49.40
44729;DHT22;30457;53.590;9.922;2022-09-13T23:01:14;20.20;49.60
44729;DHT22;30457;53.590;9.922;2022-09-13T23:05:48;20.10;50.00
44729;DHT22;30457;53.590;9.922;2022-09-13T23:10:15;20.10;50.20
44729;DHT22;30457;53.590;9.922;2022-09-13T23:14:41;20.10;49.90
44729;DHT22;30457;53.590;9.922;2022-09-13T23:19:07;20.00;50.10
44729;DHT22;30457;53.590;9.922;2022-09-13T23:23:34;20.00;50.20
44729;DHT22;30457;53.590;9.922;2022-09-13T23:28:00;20.00;50.40
44729;DHT22;30457;53.590;9.922;2022-09-13T23:32:26;19.90;50.60
44729;DHT22;30457;53.590;9.922;2022-09-13T23:36:52;19.90;50.80
44729;DHT22;30457;53.590;9.922;2022-09-13T23:41:19;19.80;50.70
44729;DHT22;30457;53.590;9.922;2022-09-13T23:45:44;19.80;50.80
44729;DHT22;30457;53.590;9.922;2022-09-13T23:50:10;19.80;51.00
44729;DHT22;30457;53.590;9.922;2022-09-13T23:54:36;19.70;51.10
44729;DHT22;30457;53.590;9.922;2022-09-13T23:59:03;19.70;51.00
